Time;durP1;ratioP1;P1;durP2;ratioP2;P2;SDS_P1;SDS_P2;PMS_P1;PMS_P2;Temp;Humidity;BMP_temperature;BMP_pressure;BME280_temperature;BME280_humidity;BME280_pressure;Samples;Min_cycle;Max_cycle;Signal;HPM_P1;HPM_P2
2021/04/27 00:00:32;;;;;;;14.52;6.63;;;8.80;74.40;;;;;;5026809;28;21834;-63
2021/04/27 00:03:00;;;;;;;13.35;7.00;;;8.80;74.40;;;;;;5024858;28;20064;-63
2021/04/27 00:05:26;;;;;;;12.82;6.85;;;8.90;75.10;;;;;;5018981;28;20055;-62
2021/04/27 00:07:53;;;;;;;17.92;7.25;;;9.00;75.40;;;;;;5023482;28;20053;-62
2021/04/27 00:10:20;;;;;;;15.25;7.03;;;9.00;75.00;;;;;;5006460;28;20049;-62
2021/04/27 00:12:47;;;;;;;16.17;6.93;;;9.10;74.20;;;;;;5026319;28;20057;-62
2021/04/27 00:15:17;;;;;;;19.05;7.57;;;9.00;75.20;;;;;;5025768;28;20099;-62
2021/04/27 00:17:44;;;;;;;15.45;7.57;;;9.00;75.30;;;;;;5024689;28;20030;-63
2021/04/27 00:20:11;;;;;;;12.68;6.22;;;9.10;74.90;;;;;;5022988;28;20041;-63
2021/04/27 00:22:38;;;;;;;15.02;6.90;;;9.00;75.60;;;;;;5025841;28;20368;-63
2021/04/27 00:25:08;;;;;;;14.10;7.07;;;8.90;75.60;;;;;;5024793;28;20041;-63
2021/04/27 00:27:35;;;;;;;17.10;7.45;;;8.80;75.50;;;;;;5026632;28;20042;-63
2021/04/27 00:30:05;;;;;;;17.10;7.43;;;8.80;75.30;;;;;;5024874;28;20045;-63
2021/04/27 00:32:32;;;;;;;20.92;7.75;;;8.80;75.30;;;;;;5016148;28;20052;-63
2021/04/27 00:35:00;;;;;;;16.17;7.65;;;8.80;74.90;;;;;;5014944;28;20038;-63
2021/04/27 00:37:27;;;;;;;19.75;8.13;;;8.80;76.00;;;;;;5024320;28;20488;-63
2021/04/27 00:39:53;;;;;;;15.55;7.05;;;8.70;75.70;;;;;;5020649;28;20056;-63
2021/04/27 00:42:33;;;;;;;17.33;7.25;;;8.70;76.00;;;;;;5036608;28;20076;-63
2021/04/27 00:45:03;;;;;;;13.57;7.50;;;8.60;76.30;;;;;;5020561;28;20045;-63
2021/04/27 00:47:30;;;;;;;15.68;7.60;;;8.60;77.70;;;;;;5024857;28;20055;-63
2021/04/27 00:49:57;;;;;;;16.98;7.20;;;8.50;77.70;;;;;;5021851;28;20132;-62
2021/04/27 00:52:25;;;;;;;18.48;8.35;;;8.50;77.70;;;;;;5024269;28;20053;-62
2021/04/27 00:54:52;;;;;;;18.90;7.68;;;8.50;77.80;;;;;;5026391;28;20045;-62
2021/04/27 00:57:20;;;;;;;19.63;7.78;;;8.50;77.20;;;;;;5031016;28;20046;-62
2021/04/27 00:59:46;;;;;;;19.02;8.55;;;8.50;77.80;;;;;;5028204;28;20152;-62
2021/04/27 01:02:13;;;;;;;21.60;9.35;;;8.50;78.30;;;;;;5026530;28;20042;-62
2021/04/27 01:04:40;;;;;;;22.83;9.15;;;8.30;77.40;;;;;;5030401;28;20044;-62
2021/04/27 01:07:08;;;;;;;26.88;9.88;;;8.30;77.40;;;;;;5028747;28;20056;-63
2021/04/27 01:09:50;;;;;;;21.65;9.23;;;8.30;78.00;;;;;;5029453;28;20045;-63
2021/04/27 01:12:29;;;;;;;22.63;8.18;;;8.40;77.50;;;;;;5031356;28;20053;-63
2021/04/27 01:15:20;;;;;;;19.58;9.65;;;8.20;78.40;;;;;;5023748;28;20049;-63
2021/04/27 01:17:48;;;;;;;25.00;9.10;;;8.20;78.80;;;;;;5025560;28;20122;-62
2021/04/27 01:20:23;;;;;;;21.23;9.30;;;8.20;78.70;;;;;;5027916;28;20054;-62
2021/04/27 01:23:22;;;;;;;25.88;9.88;;;8.10;79.30;;;;;;5024820;28;20149;-62
2021/04/27 01:26:07;;;;;;;23.55;9.45;;;8.00;80.30;;;;;;5033939;28;20053;-62
2021/04/27 01:28:42;;;;;;;;;;;8.00;81.30;;;;;;5038280;28;20045;-62
2021/04/27 01:31:10;;;;;;;18.00;6.93;;;8.00;81.50;;;;;;5025310;28;20422;-62
2021/04/27 01:33:38;;;;;;;23.20;9.20;;;8.00;80.60;;;;;;5027235;28;20504;-62
2021/04/27 01:36:05;;;;;;;20.35;8.55;;;7.90;81.10;;;;;;5028795;28;20049;-62
2021/04/27 01:38:42;;;;;;;22.55;7.88;;;7.90;81.70;;;;;;5027633;28;20607;-62
2021/04/27 01:41:09;;;;;;;17.88;8.90;;;7.80;82.10;;;;;;5033216;28;20056;-62
2021/04/27 01:43:38;;;;;;;18.52;7.72;;;7.80;82.60;;;;;;5038067;28;20052;-62
2021/04/27 01:46:06;;;;;;;23.70;8.48;;;7.70;82.30;;;;;;5031104;28;20730;-62
2021/04/27 01:48:35;;;;;;;13.77;7.82;;;7.80;82.10;;;;;;5023220;28;20393;-62
2021/04/27 01:51:09;;;;;;;15.98;7.63;;;7.70;82.60;;;;;;5026845;28;20065;-62
2021/04/27 01:53:55;;;;;;;23.13;8.65;;;7.80;82.90;;;;;;5033662;28;20060;-62
2021/04/27 01:56:24;;;;;;;16.17;7.90;;;7.90;82.60;;;;;;5012738;28;20093;-62
2021/04/27 01:58:51;;;;;;;15.43;7.75;;;8.00;82.60;;;;;;5028925;28;20065;-62
2021/04/27 02:01:23;;;;;;;17.45;7.30;;;8.00;81.70;;;;;;5010501;28;20505;-62
2021/04/27 02:03:53;;;;;;;20.73;7.63;;;8.00;81.60;;;;;;5023368;28;20037;-62
2021/04/27 02:06:38;;;;;;;17.88;7.80;;;7.90;81.40;;;;;;5026737;28;20676;-63
2021/04/27 02:09:07;;;;;;;20.42;7.75;;;7.80;82.20;;;;;;5018952;28;20045;-62
2021/04/27 02:11:47;;;;;;;16.63;7.43;;;7.70;82.00;;;;;;5011496;28;20049;-62
2021/04/27 02:14:14;;;;;;;19.58;8.38;;;7.80;81.80;;;;;;5029025;28;20133;-62
2021/04/27 02:16:57;;;;;;;18.40;7.20;;;7.80;81.90;;;;;;5010711;28;20116;-62
2021/04/27 02:19:29;;;;;;;17.15;7.65;;;7.90;82.00;;;;;;5027817;28;20433;-62
2021/04/27 02:22:26;;;;;;;16.70;7.60;;;7.90;81.50;;;;;;5024725;28;20045;-62
2021/04/27 02:25:05;;;;;;;19.17;7.65;;;7.90;81.40;;;;;;5026562;28;20045;-62
2021/04/27 02:27:36;;;;;;;17.63;8.18;;;8.00;81.30;;;;;;5028337;28;20140;-62
2021/04/27 02:30:11;;;;;;;14.45;7.05;;;7.90;80.70;;;;;;5024446;28;20048;-62
2021/04/27 02:32:40;;;;;;;14.57;7.45;;;7.80;80.70;;;;;;5025546;28;20064;-62
2021/04/27 02:35:09;;;;;;;17.35;7.32;;;7.80;81.30;;;;;;5026800;28;20520;-62
2021/04/27 02:37:37;;;;;;;17.98;7.50;;;7.80;80.70;;;;;;5025256;28;20041;-62
2021/04/27 02:40:14;;;;;;;18.33;8.02;;;7.70;80.60;;;;;;5024304;28;20050;-63
2021/04/27 02:42:48;;;;;;;16.17;7.18;;;7.80;80.90;;;;;;5024394;28;20047;-63
2021/04/27 02:45:31;;;;;;;15.38;7.45;;;7.90;80.70;;;;;;5025517;28;20055;-62
2021/04/27 02:48:27;;;;;;;15.80;7.20;;;7.80;80.80;;;;;;5023745;28;20057;-62
2021/04/27 02:51:02;;;;;;;15.70;7.53;;;7.90;80.00;;;;;;5026709;28;20104;-62
2021/04/27 02:53:41;;;;;;;13.40;6.82;;;7.90;80.00;;;;;;5022608;28;20697;-62
2021/04/27 02:56:11;;;;;;;15.13;6.57;;;7.80;80.00;;;;;;5024835;28;20048;-62
2021/04/27 02:58:48;;;;;;;15.15;7.50;;;7.70;80.10;;;;;;5022014;28;20129;-62
2021/04/27 03:01:20;;;;;;;15.48;6.45;;;7.70;80.30;;;;;;5025883;28;20708;-63
2021/04/27 03:03:47;;;;;;;16.25;6.80;;;7.70;80.50;;;;;;5027470;28;20443;-63
2021/04/27 03:06:14;;;;;;;14.82;7.40;;;7.70;80.10;;;;;;5022118;28;20052;-63
2021/04/27 03:09:04;;;;;;;15.15;6.88;;;7.70;80.70;;;;;;5025917;28;20175;-63
2021/04/27 03:11:32;;;;;;;16.10;8.02;;;7.50;80.50;;;;;;5027288;28;20041;-63
2021/04/27 03:13:59;;;;;;;16.60;7.47;;;7.40;81.30;;;;;;5043528;28;20044;-62
2021/04/27 03:16:30;;;;;;;15.75;6.85;;;7.30;82.70;;;;;;5019708;28;20182;-62
2021/04/27 03:18:57;;;;;;;18.88;7.00;;;7.40;81.90;;;;;;5027007;28;20526;-62
2021/04/27 03:21:27;;;;;;;15.52;6.60;;;7.30;82.30;;;;;;5027203;28;20109;-62
2021/04/27 03:23:58;;;;;;;14.73;6.15;;;7.20;82.00;;;;;;5010632;28;20390;-63
2021/04/27 03:26:25;;;;;;;20.33;7.88;;;7.30;82.70;;;;;;5028819;28;20049;-62
2021/04/27 03:29:10;;;;;;;15.13;7.00;;;7.30;82.70;;;;;;5025096;28;20412;-62
2021/04/27 03:31:43;;;;;;;16.10;7.10;;;7.40;82.40;;;;;;5044776;28;20053;-62
2021/04/27 03:34:12;;;;;;;15.82;7.22;;;7.30;82.50;;;;;;5028975;28;20511;-62
2021/04/27 03:36:39;;;;;;;17.77;7.00;;;7.40;82.20;;;;;;4993416;28;20460;-62
2021/04/27 03:39:06;;;;;;;14.65;6.45;;;7.40;81.90;;;;;;5032519;28;20056;-62
2021/04/27 03:41:33;;;;;;;16.27;7.75;;;7.20;82.70;;;;;;5031825;28;20048;-63
2021/04/27 03:44:00;;;;;;;18.05;7.53;;;7.30;83.00;;;;;;5023727;28;20107;-63
2021/04/27 03:46:27;;;;;;;17.48;7.80;;;7.40;82.70;;;;;;5025929;28;20076;-62
2021/04/27 03:48:53;;;;;;;16.00;7.70;;;7.50;82.70;;;;;;5024761;28;20894;-62
2021/04/27 03:51:22;;;;;;;15.30;7.75;;;7.50;82.30;;;;;;5007787;28;20073;-62
2021/04/27 03:54:15;;;;;;;15.75;7.70;;;7.50;82.20;;;;;;5023912;28;20057;-62
2021/04/27 03:56:42;;;;;;;16.27;8.25;;;7.60;81.40;;;;;;5016626;28;20049;-62
2021/04/27 03:59:12;;;;;;;22.20;8.50;;;7.60;81.30;;;;;;5027614;28;20053;-62
2021/04/27 04:01:38;;;;;;;17.35;7.78;;;7.50;81.30;;;;;;5018042;28;20045;-62
2021/04/27 04:04:05;;;;;;;16.67;7.70;;;7.50;82.20;;;;;;5026774;28;20103;-62
2021/04/27 04:06:34;;;;;;;18.67;7.35;;;7.40;81.60;;;;;;5031504;28;20053;-62
2021/04/27 04:09:04;;;;;;;17.75;7.25;;;7.50;81.50;;;;;;5030151;28;20051;-63
2021/04/27 04:11:38;;;;;;;15.77;7.43;;;7.40;81.80;;;;;;5025559;28;20475;-63
2021/04/27 04:14:07;;;;;;;17.55;7.43;;;7.40;81.80;;;;;;5029028;28;20041;-63
2021/04/27 04:16:47;;;;;;;13.45;6.55;;;7.50;81.70;;;;;;5030619;28;20049;-63
2021/04/27 04:19:14;;;;;;;19.02;7.63;;;7.50;82.10;;;;;;5024785;28;20136;-63
2021/04/27 04:21:48;;;;;;;17.58;7.85;;;7.50;83.10;;;;;;5023409;28;20042;-62
2021/04/27 04:24:16;;;;;;;20.20;8.60;;;7.50;82.80;;;;;;4997998;28;20049;-62
2021/04/27 04:26:42;;;;;;;20.73;8.82;;;7.50;83.10;;;;;;5024694;28;20048;-62
2021/04/27 04:29:39;;;;;;;19.50;8.68;;;7.60;84.90;;;;;;5030619;28;20057;-62
2021/04/27 04:32:26;;;;;;;19.13;9.07;;;7.70;84.40;;;;;;5005805;28;20068;-62
2021/04/27 04:35:13;;;;;;;35.28;9.18;;;7.90;83.80;;;;;;5007019;28;20676;-62
2021/04/27 04:37:59;;;;;;;17.83;8.13;;;8.00;82.80;;;;;;5008330;28;20083;-62
2021/04/27 04:40:45;;;;;;;17.35;7.45;;;8.10;81.60;;;;;;4999354;28;20108;-62
2021/04/27 04:43:33;;;;;;;23.40;8.32;;;8.20;81.40;;;;;;5007131;28;20096;-62
2021/04/27 04:46:21;;;;;;;19.70;8.18;;;8.30;81.20;;;;;;5006173;28;20471;-62
2021/04/27 04:49:06;;;;;;;23.98;9.82;;;8.20;81.10;;;;;;4997905;28;20049;-62
2021/04/27 04:51:54;;;;;;;23.35;9.10;;;8.40;80.80;;;;;;4998550;28;20607;-62
2021/04/27 04:54:56;;;;;;;17.45;7.93;;;8.50;79.80;;;;;;4981915;28;20113;-62
2021/04/27 04:57:51;;;;;;;14.60;7.82;;;8.50;78.80;;;;;;5008624;28;20085;-62
2021/04/27 05:00:26;;;;;;;20.33;8.57;;;8.60;78.00;;;;;;5005231;28;20046;-62
2021/04/27 05:03:24;;;;;;;16.52;8.23;;;8.70;77.70;;;;;;5007736;28;20137;-62
2021/04/27 05:06:14;;;;;;;21.92;10.57;;;8.70;76.00;;;;;;5007939;28;20424;-62
2021/04/27 05:08:59;;;;;;;20.35;9.45;;;8.80;76.50;;;;;;4998528;28;20061;-62
2021/04/27 05:11:35;;;;;;;14.13;7.35;;;8.90;75.80;;;;;;4970073;28;20080;-62
2021/04/27 05:14:21;;;;;;;16.83;7.13;;;9.00;75.10;;;;;;4966696;28;20129;-62
2021/04/27 05:16:53;;;;;;;13.35;6.18;;;9.00;74.90;;;;;;4961938;28;20058;-62
2021/04/27 05:19:26;;;;;;;13.30;6.43;;;8.80;74.50;;;;;;4963684;28;20141;-62
2021/04/27 05:22:03;;;;;;;;;;;8.90;74.70;;;;;;4950357;28;20071;-62
2021/04/27 05:24:43;;;;;;;18.08;6.30;;;9.10;74.00;;;;;;4969521;28;19932;-62
2021/04/27 05:27:18;;;;;;;13.20;5.22;;;9.10;73.60;;;;;;4962961;28;20498;-62
2021/04/27 05:29:45;;;;;;;12.98;6.10;;;9.10;73.10;;;;;;4982848;28;20061;-63
2021/04/27 05:32:12;;;;;;;11.13;5.18;;;9.10;72.60;;;;;;5006560;28;20070;-63
2021/04/27 05:34:39;;;;;;;14.63;5.97;;;9.10;72.70;;;;;;5008170;28;20054;-63
2021/04/27 05:37:05;;;;;;;11.02;5.38;;;9.20;73.70;;;;;;5029933;28;20049;-63
2021/04/27 05:39:32;;;;;;;15.23;6.28;;;9.20;73.00;;;;;;5023683;28;20462;-62
2021/04/27 05:41:59;;;;;;;12.40;6.28;;;9.20;72.50;;;;;;5029477;28;20049;-62
2021/04/27 05:44:25;;;;;;;11.68;5.65;;;9.40;72.70;;;;;;5010899;28;20106;-62
2021/04/27 05:46:52;;;;;;;9.75;4.28;;;9.50;72.60;;;;;;5029022;28;20052;-63
2021/04/27 05:49:19;;;;;;;12.02;4.30;;;9.50;70.30;;;;;;5024888;28;20100;-63
2021/04/27 05:51:46;;;;;;;14.57;4.95;;;9.60;71.00;;;;;;5024292;28;20072;-63
2021/04/27 05:54:12;;;;;;;11.23;4.70;;;9.50;70.40;;;;;;5028729;28;20090;-63
2021/04/27 05:56:39;;;;;;;12.88;4.80;;;9.60;71.20;;;;;;5024408;28;20558;-63
2021/04/27 05:59:05;;;;;;;11.23;4.68;;;9.70;71.00;;;;;;5028037;28;20052;-63
2021/04/27 06:01:32;;;;;;;11.55;4.28;;;9.70;69.70;;;;;;5028072;28;20061;-63
2021/04/27 06:03:59;;;;;;;9.70;4.35;;;9.80;69.20;;;;;;5027299;28;20045;-62
2021/04/27 06:06:26;;;;;;;8.38;4.10;;;9.80;69.60;;;;;;5019186;28;20049;-63
2021/04/27 06:08:53;;;;;;;8.82;4.57;;;9.90;69.80;;;;;;5026542;28;20069;-63
2021/04/27 06:11:20;;;;;;;10.55;4.03;;;10.00;69.50;;;;;;5025789;28;20046;-63
2021/04/27 06:13:46;;;;;;;11.40;5.25;;;10.00;68.10;;;;;;5025760;28;20520;-63
2021/04/27 06:16:16;;;;;;;11.02;4.53;;;10.00;69.50;;;;;;5027957;28;20049;-63
2021/04/27 06:18:42;;;;;;;9.23;4.35;;;10.00;68.80;;;;;;5024627;28;20131;-63
2021/04/27 06:21:09;;;;;;;8.90;4.00;;;10.10;68.80;;;;;;5005300;28;20049;-63
2021/04/27 06:23:35;;;;;;;12.60;4.40;;;10.20;68.00;;;;;;5021363;28;20053;-63
2021/04/27 06:26:02;;;;;;;7.75;3.65;;;10.30;68.50;;;;;;5027821;28;20938;-63
2021/04/27 06:28:29;;;;;;;9.20;4.47;;;10.30;66.60;;;;;;5032179;28;20049;-63
2021/04/27 06:30:55;;;;;;;9.88;4.40;;;10.30;67.30;;;;;;5028650;28;20399;-63
2021/04/27 06:33:22;;;;;;;10.20;3.80;;;10.20;66.60;;;;;;5027174;28;20037;-63
2021/04/27 06:35:51;;;;;;;10.20;4.68;;;10.10;66.90;;;;;;5032974;28;20042;-63
2021/04/27 06:38:19;;;;;;;9.27;4.20;;;10.10;67.90;;;;;;5002580;28;20056;-63
2021/04/27 06:40:48;;;;;;;11.77;4.88;;;10.10;67.80;;;;;;5007619;28;20148;-63
2021/04/27 06:43:16;;;;;;;10.93;4.78;;;10.10;68.60;;;;;;5024569;28;20046;-63
2021/04/27 06:45:43;;;;;;;9.50;4.32;;;10.20;69.00;;;;;;5025215;28;20876;-63
2021/04/27 06:48:10;;;;;;;7.90;4.28;;;10.30;68.60;;;;;;5022730;28;20049;-63
2021/04/27 06:50:38;;;;;;;9.80;4.30;;;10.30;67.50;;;;;;5010861;28;20046;-63
2021/04/27 06:53:05;;;;;;;10.95;4.30;;;10.30;67.20;;;;;;5025411;28;20551;-63
2021/04/27 06:55:32;;;;;;;7.05;4.18;;;10.30;68.60;;;;;;5013146;28;20053;-63
2021/04/27 06:58:05;;;;;;;7.18;4.10;;;10.40;68.60;;;;;;5025745;28;20504;-63
2021/04/27 07:00:32;;;;;;;8.38;4.07;;;10.50;67.20;;;;;;5020738;28;20768;-63
2021/04/27 07:03:02;;;;;;;10.13;4.22;;;10.60;66.50;;;;;;5026168;28;20038;-63
2021/04/27 07:05:29;;;;;;;8.52;4.10;;;10.60;66.20;;;;;;5028807;28;20069;-63
2021/04/27 07:07:57;;;;;;;7.70;3.75;;;10.60;66.00;;;;;;5026498;28;20037;-63
2021/04/27 07:10:24;;;;;;;7.13;3.97;;;10.60;66.10;;;;;;5023644;28;20055;-63
2021/04/27 07:12:51;;;;;;;11.77;4.13;;;10.60;65.70;;;;;;5024458;28;20484;-63
2021/04/27 07:15:18;;;;;;;9.07;3.88;;;10.60;66.40;;;;;;5026080;28;20496;-63
2021/04/27 07:17:45;;;;;;;7.75;3.97;;;10.70;66.40;;;;;;5014145;28;20068;-64
2021/04/27 07:20:13;;;;;;;13.98;5.20;;;10.70;66.50;;;;;;5016088;28;20087;-63
2021/04/27 07:22:40;;;;;;;12.20;4.28;;;10.80;67.10;;;;;;5025907;28;20049;-63
2021/04/27 07:25:08;;;;;;;9.63;4.18;;;10.90;66.60;;;;;;5026856;28;20195;-63
2021/04/27 07:27:35;;;;;;;7.75;3.42;;;10.90;66.10;;;;;;5023935;28;20128;-63
2021/04/27 07:30:04;;;;;;;8.20;4.13;;;10.90;64.70;;;;;;5035588;28;20083;-63
2021/04/27 07:32:31;;;;;;;7.72;3.70;;;11.00;64.10;;;;;;5035920;28;20100;-63
2021/04/27 07:34:58;;;;;;;8.20;4.07;;;11.10;63.80;;;;;;5020870;28;20103;-63
2021/04/27 07:37:24;;;;;;;7.55;3.33;;;11.20;65.40;;;;;;5019779;28;20045;-63
2021/04/27 07:39:51;;;;;;;10.40;4.05;;;11.30;62.50;;;;;;5012372;28;20046;-63
2021/04/27 07:42:17;;;;;;;11.10;3.70;;;11.30;62.70;;;;;;5024647;28;20037;-63
2021/04/27 07:44:44;;;;;;;8.18;3.25;;;11.30;63.40;;;;;;5019406;28;20041;-63
2021/04/27 07:47:11;;;;;;;6.45;3.33;;;11.30;62.50;;;;;;5021378;28;20064;-63
2021/04/27 07:49:37;;;;;;;6.88;3.17;;;11.30;63.30;;;;;;5024844;28;20049;-63
2021/04/27 07:52:04;;;;;;;9.02;4.10;;;11.40;62.10;;;;;;5023548;28;20145;-63
2021/04/27 07:54:31;;;;;;;9.88;4.35;;;11.40;64.50;;;;;;5019482;28;20037;-63
2021/04/27 07:56:58;;;;;;;6.78;3.53;;;11.40;63.50;;;;;;5021586;28;20045;-62
2021/04/27 07:59:24;;;;;;;7.32;3.95;;;11.50;61.80;;;;;;5020852;28;20060;-63
2021/04/27 08:01:51;;;;;;;7.60;3.50;;;11.50;61.90;;;;;;5024885;28;20033;-62
2021/04/27 08:04:19;;;;;;;6.95;3.28;;;11.60;63.50;;;;;;5024492;28;20947;-62
2021/04/27 08:06:45;;;;;;;8.55;3.65;;;11.70;63.60;;;;;;5032363;28;20045;-62
2021/04/27 08:09:12;;;;;;;8.75;3.28;;;11.80;61.90;;;;;;5027977;28;20033;-62
2021/04/27 08:11:40;;;;;;;4.97;3.55;;;11.90;61.50;;;;;;5018754;28;20168;-62
2021/04/27 08:14:08;;;;;;;7.28;2.95;;;11.90;61.60;;;;;;5026281;28;20044;-63
2021/04/27 08:16:35;;;;;;;11.00;3.38;;;12.00;60.30;;;;;;5017126;28;20047;-64
2021/04/27 08:19:03;;;;;;;6.75;3.63;;;12.10;61.50;;;;;;5025350;28;20057;-63
2021/04/27 08:21:32;;;;;;;14.50;6.15;;;12.10;61.00;;;;;;5024226;28;20068;-65
2021/04/27 08:24:03;;;;;;;130.55;46.13;;;12.20;59.20;;;;;;5013725;28;20037;-63
2021/04/27 08:26:50;;;;;;;62.00;20.75;;;12.30;60.60;;;;;;5022832;28;20041;-64
2021/04/27 08:29:19;;;;;;;26.38;16.85;;;12.50;62.40;;;;;;5024501;28;20470;-64
2021/04/27 08:31:58;;;;;;;8.07;4.10;;;12.60;61.20;;;;;;5020342;28;20042;-65
2021/04/27 08:34:29;;;;;;;9.98;4.05;;;12.70;61.00;;;;;;5009873;28;20136;-65
2021/04/27 08:36:56;;;;;;;146.88;53.35;;;12.80;60.00;;;;;;5020330;28;20041;-65
2021/04/27 08:39:26;;;;;;;15.63;7.15;;;13.00;59.80;;;;;;5018632;28;20131;-64
2021/04/27 08:41:55;;;;;;;5.88;3.10;;;13.10;60.20;;;;;;5021670;28;20055;-64
2021/04/27 08:44:23;;;;;;;7.13;3.83;;;13.10;58.60;;;;;;5026127;28;20064;-63
2021/04/27 08:46:50;;;;;;;9.93;3.60;;;13.20;58.40;;;;;;5019842;28;20124;-62
2021/04/27 08:49:18;;;;;;;5.50;3.22;;;13.20;58.80;;;;;;5017389;28;20104;-65
2021/04/27 08:51:45;;;;;;;11.05;4.22;;;13.30;57.90;;;;;;5009685;28;20088;-65
2021/04/27 08:54:23;;;;;;;5.93;3.45;;;13.30;57.80;;;;;;5018020;28;20053;-65
2021/04/27 08:56:50;;;;;;;9.45;4.30;;;13.30;57.60;;;;;;5014940;28;20149;-65
2021/04/27 08:59:19;;;;;;;8.30;4.00;;;13.30;58.00;;;;;;5023154;28;20122;-65
2021/04/27 09:02:01;;;;;;;23.33;9.90;;;13.30;56.80;;;;;;5018785;28;20045;-65
2021/04/27 09:04:50;;;;;;;17.60;6.88;;;13.30;57.10;;;;;;5024677;28;20072;-64
2021/04/27 09:07:22;;;;;;;12.50;7.18;;;13.40;57.30;;;;;;5024292;28;20085;-64
2021/04/27 09:09:59;;;;;;;7.20;3.72;;;13.50;56.30;;;;;;5032116;28;20053;-65
2021/04/27 09:12:33;;;;;;;6.95;3.53;;;13.50;57.00;;;;;;5021910;28;20776;-65
2021/04/27 09:15:00;;;;;;;11.63;4.35;;;13.50;56.20;;;;;;5023348;28;20058;-64
2021/04/27 09:17:29;;;;;;;8.45;3.65;;;13.40;55.70;;;;;;5010364;28;20049;-64
2021/04/27 09:19:57;;;;;;;7.50;3.67;;;13.40;56.20;;;;;;5028275;28;20930;-64
2021/04/27 09:22:32;;;;;;;7.55;3.80;;;13.40;55.70;;;;;;5025340;28;20119;-64
2021/04/27 09:25:09;;;;;;;6.32;3.10;;;13.50;56.80;;;;;;5032292;28;20042;-64
2021/04/27 09:27:37;;;;;;;5.90;3.30;;;13.70;57.30;;;;;;5000155;28;20461;-65
2021/04/27 09:30:26;;;;;;;7.15;3.22;;;13.90;57.00;;;;;;5021906;28;20033;-65
2021/04/27 09:32:54;;;;;;;7.63;3.10;;;14.00;55.90;;;;;;5022543;28;20073;-64
2021/04/27 09:35:34;;;;;;;6.93;3.65;;;14.20;55.50;;;;;;5006522;28;20047;-64
2021/04/27 09:38:11;;;;;;;;;;;14.30;55.90;;;;;;5030414;28;20485;-64
2021/04/27 09:41:05;;;;;;;6.35;2.95;;;14.30;55.90;;;;;;5025200;28;20054;-64
2021/04/27 09:43:40;;;;;;;8.32;4.32;;;14.30;54.80;;;;;;5020971;28;20052;-64
2021/04/27 09:46:28;;;;;;;8.30;3.75;;;14.40;56.40;;;;;;5002418;28;20053;-65
2021/04/27 09:49:06;;;;;;;7.95;3.70;;;14.50;54.70;;;;;;5024188;28;20048;-64
2021/04/27 09:51:53;;;;;;;8.35;3.33;;;14.50;54.60;;;;;;5032969;28;20049;-64
2021/04/27 09:54:22;;;;;;;6.38;3.45;;;14.50;55.70;;;;;;5024170;28;20067;-64
2021/04/27 09:56:50;;;;;;;7.57;3.30;;;14.60;54.70;;;;;;5023825;28;20034;-64
2021/04/27 09:59:30;;;;;;;7.65;3.55;;;14.70;54.30;;;;;;5021540;28;20762;-63
2021/04/27 10:02:04;;;;;;;6.40;3.45;;;14.90;52.00;;;;;;5010093;28;20108;-64
2021/04/27 10:04:42;;;;;;;7.05;3.33;;;15.00;52.50;;;;;;5013706;28;20564;-63
2021/04/27 10:07:18;;;;;;;8.90;3.28;;;15.10;49.70;;;;;;5014913;28;20057;-63
2021/04/27 10:09:54;;;;;;;6.65;3.03;;;15.10;50.60;;;;;;5023476;28;20048;-63
2021/04/27 10:12:30;;;;;;;7.35;3.33;;;15.10;51.60;;;;;;5023733;28;20140;-63
2021/04/27 10:15:03;;;;;;;7.53;3.42;;;15.30;52.70;;;;;;5022129;28;20061;-63
2021/04/27 10:17:30;;;;;;;5.88;3.60;;;15.40;52.60;;;;;;5043079;28;20705;-63
2021/04/27 10:19:58;;;;;;;8.05;2.90;;;15.40;51.40;;;;;;5025321;28;20068;-63
2021/04/27 10:22:28;;;;;;;5.28;3.17;;;15.50;50.60;;;;;;5023990;28;20042;-63
2021/04/27 10:24:58;;;;;;;6.32;3.05;;;15.40;48.20;;;;;;5023645;28;20821;-63
2021/04/27 10:27:29;;;;;;;7.25;3.13;;;15.40;49.40;;;;;;5027067;28;20388;-63
2021/04/27 10:30:33;;;;;;;5.88;2.95;;;15.50;48.30;;;;;;5014102;28;20038;-63
2021/04/27 10:33:02;;;;;;;6.28;3.38;;;15.60;50.50;;;;;;5024157;28;20187;-63
2021/04/27 10:35:37;;;;;;;9.00;3.00;;;15.60;50.20;;;;;;5022644;28;20140;-64
2021/04/27 10:38:12;;;;;;;8.63;3.35;;;15.60;48.90;;;;;;5021608;28;20417;-63
2021/04/27 10:40:44;;;;;;;5.18;2.85;;;15.60;50.00;;;;;;5008524;28;20042;-63
2021/04/27 10:43:26;;;;;;;9.43;3.15;;;15.60;49.90;;;;;;5005068;28;20049;-63
2021/04/27 10:46:04;;;;;;;5.28;2.65;;;15.70;49.70;;;;;;5020153;28;20479;-63
2021/04/27 10:48:38;;;;;;;5.45;3.05;;;15.80;48.20;;;;;;5029557;28;20057;-63
2021/04/27 10:51:26;;;;;;;4.35;2.65;;;15.90;50.20;;;;;;5009490;28;20775;-63
2021/04/27 10:54:15;;;;;;;6.80;2.80;;;16.00;48.80;;;;;;5010737;28;20061;-63
2021/04/27 10:56:55;;;;;;;7.40;2.97;;;15.90;48.40;;;;;;5029832;28;20056;-63
2021/04/27 10:59:29;;;;;;;6.03;3.58;;;15.90;47.60;;;;;;5004836;28;20432;-63
2021/04/27 11:02:20;;;;;;;7.30;2.85;;;15.90;48.20;;;;;;5020604;28;20042;-63
2021/04/27 11:04:49;;;;;;;8.77;3.30;;;16.10;49.20;;;;;;5003002;28;20128;-63
2021/04/27 11:07:22;;;;;;;8.00;3.03;;;16.20;47.00;;;;;;5014529;28;20050;-63
2021/04/27 11:10:04;;;;;;;4.38;2.60;;;16.20;47.90;;;;;;5026059;28;20045;-63
2021/04/27 11:13:05;;;;;;;4.93;2.83;;;16.20;46.70;;;;;;5029411;28;20037;-63
2021/04/27 11:15:32;;;;;;;6.35;2.75;;;16.10;45.70;;;;;;5023894;28;20512;-63
2021/04/27 11:18:07;;;;;;;6.00;3.20;;;15.90;49.00;;;;;;5023247;28;20591;-63
2021/04/27 11:21:13;;;;;;;7.50;2.88;;;16.00;48.30;;;;;;5025819;28;20060;-63
2021/04/27 11:23:55;;;;;;;4.97;2.58;;;16.10;47.40;;;;;;5022583;28;20049;-63
2021/04/27 11:26:32;;;;;;;4.97;2.67;;;16.30;45.60;;;;;;5042473;28;20136;-63
2021/04/27 11:29:12;;;;;;;6.95;2.85;;;16.40;45.70;;;;;;5027818;28;20053;-63
2021/04/27 11:32:14;;;;;;;6.55;2.75;;;16.60;46.30;;;;;;5020391;28;20041;-63
2021/04/27 11:35:05;;;;;;;6.45;2.22;;;16.80;44.70;;;;;;5026641;28;20049;-63
2021/04/27 11:37:35;;;;;;;3.70;2.20;;;16.80;46.20;;;;;;5026899;28;20469;-63
2021/04/27 11:40:25;;;;;;;7.93;3.33;;;16.90;45.40;;;;;;5045526;28;20025;-63
2021/04/27 11:43:03;;;;;;;7.20;3.38;;;16.80;44.20;;;;;;5029409;28;20421;-63
2021/04/27 11:45:32;;;;;;;7.70;2.88;;;16.80;44.30;;;;;;5037147;28;20057;-63
2021/04/27 11:47:59;;;;;;;4.95;2.53;;;17.10;44.10;;;;;;5030561;28;20139;-63
2021/04/27 11:50:29;;;;;;;4.88;2.30;;;17.20;44.00;;;;;;5029913;28;20060;-63
2021/04/27 11:53:04;;;;;;;4.40;2.10;;;17.30;43.10;;;;;;5018459;28;20416;-63
2021/04/27 11:55:51;;;;;;;6.55;2.70;;;17.50;43.60;;;;;;5026443;28;20128;-63
2021/04/27 11:58:21;;;;;;;4.85;2.72;;;17.60;43.80;;;;;;5023679;28;20041;-63
2021/04/27 12:00:55;;;;;;;6.85;2.65;;;17.90;42.40;;;;;;5023301;28;20041;-63
2021/04/27 12:03:28;;;;;;;5.13;3.15;;;18.10;43.60;;;;;;5024628;28;20582;-63
2021/04/27 12:06:06;;;;;;;5.72;2.50;;;18.50;43.30;;;;;;5029316;28;20044;-63
2021/04/27 12:08:36;;;;;;;5.43;2.58;;;18.80;42.90;;;;;;5019400;28;20056;-63
2021/04/27 12:11:12;;;;;;;4.03;2.05;;;18.90;42.40;;;;;;5028495;28;20041;-63
2021/04/27 12:13:50;;;;;;;3.88;2.40;;;19.00;41.50;;;;;;5018479;28;20053;-63
2021/04/27 12:16:27;;;;;;;5.10;2.45;;;19.20;41.30;;;;;;5026799;28;20045;-63
2021/04/27 12:18:59;;;;;;;6.13;2.10;;;19.40;39.40;;;;;;5016752;28;20050;-63
2021/04/27 12:21:31;;;;;;;4.75;1.85;;;19.50;39.70;;;;;;5028132;28;20073;-63
2021/04/27 12:24:07;;;;;;;5.78;2.80;;;19.70;38.80;;;;;;5035569;28;20069;-63
2021/04/27 12:26:35;;;;;;;4.38;2.35;;;19.80;37.30;;;;;;5029605;28;20045;-63
2021/04/27 12:29:02;;;;;;;3.72;2.05;;;19.80;37.10;;;;;;5018773;28;20037;-63
2021/04/27 12:31:31;;;;;;;5.70;2.15;;;19.90;37.20;;;;;;5022401;28;20059;-63
2021/04/27 12:33:59;;;;;;;4.40;2.33;;;20.00;39.20;;;;;;5018161;28;20041;-63
2021/04/27 12:36:35;;;;;;;6.90;2.10;;;20.00;38.40;;;;;;5015193;28;20050;-63
2021/04/27 12:39:08;;;;;;;7.43;2.15;;;20.00;38.80;;;;;;5016049;28;20053;-63
2021/04/27 12:41:42;;;;;;;5.25;2.53;;;20.30;39.30;;;;;;5015912;28;20496;-64
2021/04/27 12:44:35;;;;;;;2.75;1.70;;;20.50;37.00;;;;;;5019480;28;20042;-64
2021/04/27 12:47:17;;;;;;;4.32;1.35;;;20.80;35.80;;;;;;5001751;28;20060;-63
2021/04/27 12:49:54;;;;;;;3.33;1.80;;;21.20;35.00;;;;;;5024194;28;20751;-63
2021/04/27 12:52:20;;;;;;;3.75;1.55;;;21.40;33.80;;;;;;5017741;28;20596;-64
2021/04/27 12:54:59;;;;;;;2.40;1.58;;;21.40;34.80;;;;;;5024529;28;20042;-63
2021/04/27 12:57:26;;;;;;;10.43;2.05;;;21.70;34.20;;;;;;5024844;28;20520;-63
2021/04/27 13:00:02;;;;;;;3.60;1.65;;;21.90;34.70;;;;;;5025433;28;20092;-63
2021/04/27 13:02:29;;;;;;;4.18;1.75;;;22.10;33.80;;;;;;5018640;28;20045;-63
2021/04/27 13:05:00;;;;;;;4.80;1.60;;;22.40;32.00;;;;;;5022844;28;20080;-63
2021/04/27 13:07:28;;;;;;;5.32;1.42;;;22.60;32.30;;;;;;5028370;28;20045;-64
2021/04/27 13:09:57;;;;;;;3.55;1.55;;;22.80;32.60;;;;;;5024743;28;20111;-63
2021/04/27 13:12:24;;;;;;;2.75;1.27;;;23.10;32.90;;;;;;5018677;28;20055;-63
2021/04/27 13:14:53;;;;;;;2.88;1.27;;;23.50;32.10;;;;;;5020461;28;20099;-63